Merna, Nebraska
Current Conditions -  °F | °C
As of 12:53 PM on Friday 31 Oct 2014 (Local Time) from KBBW Reporting Station
Clear Clear  
Wind Chill: 34°   Ceiling: Unl
Heat Index: 39°   Visibility: 10mi
Dew Point: 18°   Wind: 7mph
Humidity: 43%   Direction: NA
Pressure: 30.5"   Gusts: NA
Location:  41.48°N, 99.76°W
Report Text: KBBW 311753Z AUTO VRB06KT 10SM CLR 04/M08 A3050 RMK AO2 SLP346 T00391078 10039 21028 58015
Loading
Personal Weather Stations






























Interactive Weather Map
Tropical Storm Tracking
New forecast layout! Learn more

10-Day Weather Forecast

Advertisements
Track Severe Weather on mobile